sensor_id;sensor_type;location;lat;lon;timestamp;P1;durP1;ratioP1;P2;durP2;ratioP2
58643;SDS011;44411;49.994;8.660;2023-08-24T00:01:58;9.35;;;7.75;;
58643;SDS011;44411;49.994;8.660;2023-08-24T00:04:23;9.23;;;7.40;;
58643;SDS011;44411;49.994;8.660;2023-08-24T00:06:48;9.63;;;8.07;;
58643;SDS011;44411;49.994;8.660;2023-08-24T00:09:13;9.83;;;8.50;;
58643;SDS011;44411;49.994;8.660;2023-08-24T00:11:40;11.77;;;8.05;;
58643;SDS011;44411;49.994;8.660;2023-08-24T00:14:05;11.70;;;8.93;;
58643;SDS011;44411;49.994;8.660;2023-08-24T00:16:30;10.70;;;9.10;;
58643;SDS011;44411;49.994;8.660;2023-08-24T00:18:56;10.52;;;8.35;;
58643;SDS011;44411;49.994;8.660;2023-08-24T00:21:21;10.97;;;8.13;;
58643;SDS011;44411;49.994;8.660;2023-08-24T00:23:48;9.80;;;8.80;;
58643;SDS011;44411;49.994;8.660;2023-08-24T00:26:13;9.43;;;8.50;;
58643;SDS011;44411;49.994;8.660;2023-08-24T00:28:38;12.13;;;9.37;;
58643;SDS011;44411;49.994;8.660;2023-08-24T00:31:03;12.37;;;9.67;;
58643;SDS011;44411;49.994;8.660;2023-08-24T00:33:28;13.87;;;9.67;;
58643;SDS011;44411;49.994;8.660;2023-08-24T00:35:58;10.63;;;9.63;;
58643;SDS011;44411;49.994;8.660;2023-08-24T00:38:23;13.73;;;9.90;;
58643;SDS011;44411;49.994;8.660;2023-08-24T00:40:49;11.68;;;9.98;;
58643;SDS011;44411;49.994;8.660;2023-08-24T00:43:17;10.18;;;9.18;;
58643;SDS011;44411;49.994;8.660;2023-08-24T00:45:43;10.98;;;9.75;;
58643;SDS011;44411;49.994;8.660;2023-08-24T00:48:08;10.97;;;9.87;;
58643;SDS011;44411;49.994;8.660;2023-08-24T00:50:34;11.35;;;9.88;;
58643;SDS011;44411;49.994;8.660;2023-08-24T00:52:59;15.13;;;9.90;;
58643;SDS011;44411;49.994;8.660;2023-08-24T00:55:24;13.50;;;10.13;;
58643;SDS011;44411;49.994;8.660;2023-08-24T00:57:50;13.82;;;10.32;;
58643;SDS011;44411;49.994;8.660;2023-08-24T01:00:16;12.55;;;11.25;;
58643;SDS011;44411;49.994;8.660;2023-08-24T01:02:41;15.77;;;11.43;;
58643;SDS011;44411;49.994;8.660;2023-08-24T01:05:09;12.63;;;11.52;;
58643;SDS011;44411;49.994;8.660;2023-08-24T01:07:34;12.50;;;11.30;;
58643;SDS011;44411;49.994;8.660;2023-08-24T01:10:02;15.63;;;11.60;;
58643;SDS011;44411;49.994;8.660;2023-08-24T01:12:32;12.90;;;11.55;;
58643;SDS011;44411;49.994;8.660;2023-08-24T01:17:28;14.00;;;12.70;;
58643;SDS011;44411;49.994;8.660;2023-08-24T01:19:55;13.30;;;12.10;;
58643;SDS011;44411;49.994;8.660;2023-08-24T01:25:11;14.82;;;11.95;;
58643;SDS011;44411;49.994;8.660;2023-08-24T01:27:37;14.57;;;13.15;;
58643;SDS011;44411;49.994;8.660;2023-08-24T01:30:03;14.60;;;13.18;;
58643;SDS011;44411;49.994;8.660;2023-08-24T01:32:32;15.23;;;13.68;;
58643;SDS011;44411;49.994;8.660;2023-08-24T01:34:58;17.20;;;13.13;;
58643;SDS011;44411;49.994;8.660;2023-08-24T01:37:24;16.50;;;14.85;;
58643;SDS011;44411;49.994;8.660;2023-08-24T01:39:52;21.27;;;14.85;;
58643;SDS011;44411;49.994;8.660;2023-08-24T01:42:20;16.58;;;14.93;;
58643;SDS011;44411;49.994;8.660;2023-08-24T01:44:47;15.18;;;13.65;;
58643;SDS011;44411;49.994;8.660;2023-08-24T01:47:13;15.60;;;14.20;;
58643;SDS011;44411;49.994;8.660;2023-08-24T01:49:38;15.23;;;13.73;;
58643;SDS011;44411;49.994;8.660;2023-08-24T01:52:05;14.77;;;13.27;;
58643;SDS011;44411;49.994;8.660;2023-08-24T01:54:31;15.35;;;13.80;;
58643;SDS011;44411;49.994;8.660;2023-08-24T01:56:56;15.20;;;13.68;;
58643;SDS011;44411;49.994;8.660;2023-08-24T01:59:21;15.10;;;13.33;;
58643;SDS011;44411;49.994;8.660;2023-08-24T02:01:46;15.10;;;13.67;;
58643;SDS011;44411;49.994;8.660;2023-08-24T02:04:12;14.27;;;12.87;;
58643;SDS011;44411;49.994;8.660;2023-08-24T02:06:37;15.97;;;13.97;;
58643;SDS011;44411;49.994;8.660;2023-08-24T02:09:02;15.57;;;14.03;;
58643;SDS011;44411;49.994;8.660;2023-08-24T02:11:27;15.30;;;13.73;;
58643;SDS011;44411;49.994;8.660;2023-08-24T02:13:52;15.57;;;14.10;;
58643;SDS011;44411;49.994;8.660;2023-08-24T02:16:17;16.53;;;14.93;;
58643;SDS011;44411;49.994;8.660;2023-08-24T02:18:43;14.90;;;13.50;;
58643;SDS011;44411;49.994;8.660;2023-08-24T02:21:08;15.23;;;13.90;;
58643;SDS011;44411;49.994;8.660;2023-08-24T02:23:35;15.25;;;13.75;;
58643;SDS011;44411;49.994;8.660;2023-08-24T02:26:00;15.33;;;13.87;;
58643;SDS011;44411;49.994;8.660;2023-08-24T02:28:25;16.73;;;15.20;;
58643;SDS011;44411;49.994;8.660;2023-08-24T02:30:50;15.37;;;13.77;;
58643;SDS011;44411;49.994;8.660;2023-08-24T02:33:16;14.57;;;13.27;;
58643;SDS011;44411;49.994;8.660;2023-08-24T02:35:41;15.40;;;13.77;;
58643;SDS011;44411;49.994;8.660;2023-08-24T02:38:08;15.88;;;14.25;;
58643;SDS011;44411;49.994;8.660;2023-08-24T02:40:33;14.50;;;13.07;;
58643;SDS011;44411;49.994;8.660;2023-08-24T02:42:59;14.43;;;13.00;;
58643;SDS011;44411;49.994;8.660;2023-08-24T02:45:24;14.87;;;13.17;;
58643;SDS011;44411;49.994;8.660;2023-08-24T02:47:49;14.00;;;12.70;;
58643;SDS011;44411;49.994;8.660;2023-08-24T02:50:14;13.93;;;12.53;;
58643;SDS011;44411;49.994;8.660;2023-08-24T02:52:39;16.03;;;13.20;;
58643;SDS011;44411;49.994;8.660;2023-08-24T02:55:05;14.10;;;12.90;;
58643;SDS011;44411;49.994;8.660;2023-08-24T02:57:30;14.15;;;12.82;;
58643;SDS011;44411;49.994;8.660;2023-08-24T02:59:56;15.63;;;13.17;;
58643;SDS011;44411;49.994;8.660;2023-08-24T03:02:21;13.88;;;12.48;;
58643;SDS011;44411;49.994;8.660;2023-08-24T03:04:46;14.03;;;12.67;;
58643;SDS011;44411;49.994;8.660;2023-08-24T03:07:11;14.67;;;12.33;;
58643;SDS011;44411;49.994;8.660;2023-08-24T03:09:37;14.25;;;12.77;;
58643;SDS011;44411;49.994;8.660;2023-08-24T03:12:02;15.93;;;12.80;;
58643;SDS011;44411;49.994;8.660;2023-08-24T03:14:27;13.63;;;12.20;;
58643;SDS011;44411;49.994;8.660;2023-08-24T03:16:53;13.50;;;12.27;;
58643;SDS011;44411;49.994;8.660;2023-08-24T03:19:18;15.10;;;13.43;;
58643;SDS011;44411;49.994;8.660;2023-08-24T03:21:43;13.07;;;11.87;;
58643;SDS011;44411;49.994;8.660;2023-08-24T03:24:08;13.68;;;12.25;;
58643;SDS011;44411;49.994;8.660;2023-08-24T03:26:34;13.87;;;12.47;;
58643;SDS011;44411;49.994;8.660;2023-08-24T03:28:59;14.48;;;12.93;;
58643;SDS011;44411;49.994;8.660;2023-08-24T03:31:24;13.55;;;12.23;;
58643;SDS011;44411;49.994;8.660;2023-08-24T03:33:51;14.93;;;12.82;;
58643;SDS011;44411;49.994;8.660;2023-08-24T03:36:16;14.35;;;12.68;;
58643;SDS011;44411;49.994;8.660;2023-08-24T03:38:41;14.20;;;12.80;;
58643;SDS011;44411;49.994;8.660;2023-08-24T03:41:06;15.73;;;12.75;;
58643;SDS011;44411;49.994;8.660;2023-08-24T03:43:32;13.30;;;12.07;;
58643;SDS011;44411;49.994;8.660;2023-08-24T03:45:58;14.88;;;13.30;;
58643;SDS011;44411;49.994;8.660;2023-08-24T03:48:23;13.87;;;12.63;;
58643;SDS011;44411;49.994;8.660;2023-08-24T03:50:48;13.07;;;11.87;;
58643;SDS011;44411;49.994;8.660;2023-08-24T03:53:14;14.00;;;12.37;;
58643;SDS011;44411;49.994;8.660;2023-08-24T03:55:39;12.67;;;11.47;;
58643;SDS011;44411;49.994;8.660;2023-08-24T03:58:04;13.60;;;12.03;;
58643;SDS011;44411;49.994;8.660;2023-08-24T04:00:29;13.17;;;11.83;;
58643;SDS011;44411;49.994;8.660;2023-08-24T04:02:55;13.20;;;11.70;;
58643;SDS011;44411;49.994;8.660;2023-08-24T04:05:21;12.43;;;11.33;;
58643;SDS011;44411;49.994;8.660;2023-08-24T04:07:46;13.53;;;11.13;;
58643;SDS011;44411;49.994;8.660;2023-08-24T04:10:12;12.45;;;11.25;;
58643;SDS011;44411;49.994;8.660;2023-08-24T04:12:37;13.18;;;11.77;;
58643;SDS011;44411;49.994;8.660;2023-08-24T04:15:03;12.25;;;11.02;;
58643;SDS011;44411;49.994;8.660;2023-08-24T04:17:29;12.23;;;10.98;;
58643;SDS011;44411;49.994;8.660;2023-08-24T04:19:54;12.65;;;11.45;;
58643;SDS011;44411;49.994;8.660;2023-08-24T04:22:19;12.70;;;11.50;;
58643;SDS011;44411;49.994;8.660;2023-08-24T04:24:44;13.00;;;11.70;;
58643;SDS011;44411;49.994;8.660;2023-08-24T04:27:10;12.97;;;11.07;;
58643;SDS011;44411;49.994;8.660;2023-08-24T04:29:35;11.55;;;10.45;;
58643;SDS011;44411;49.994;8.660;2023-08-24T04:32:00;12.97;;;11.57;;
58643;SDS011;44411;49.994;8.660;2023-08-24T04:34:26;13.83;;;11.23;;
58643;SDS011;44411;49.994;8.660;2023-08-24T04:36:51;13.00;;;11.45;;
58643;SDS011;44411;49.994;8.660;2023-08-24T04:39:16;13.02;;;11.60;;
58643;SDS011;44411;49.994;8.660;2023-08-24T04:41:43;13.43;;;12.15;;
58643;SDS011;44411;49.994;8.660;2023-08-24T04:44:08;12.65;;;11.32;;
58643;SDS011;44411;49.994;8.660;2023-08-24T04:46:34;12.93;;;11.10;;
58643;SDS011;44411;49.994;8.660;2023-08-24T04:48:59;11.90;;;10.90;;
58643;SDS011;44411;49.994;8.660;2023-08-24T04:51:24;12.10;;;10.63;;
58643;SDS011;44411;49.994;8.660;2023-08-24T04:53:49;13.23;;;11.82;;
58643;SDS011;44411;49.994;8.660;2023-08-24T04:56:15;12.03;;;10.77;;
58643;SDS011;44411;49.994;8.660;2023-08-24T04:58:41;11.93;;;10.85;;
58643;SDS011;44411;49.994;8.660;2023-08-24T05:01:16;12.63;;;11.32;;
58643;SDS011;44411;49.994;8.660;2023-08-24T05:03:41;12.10;;;10.87;;
58643;SDS011;44411;49.994;8.660;2023-08-24T05:06:07;11.97;;;10.70;;
58643;SDS011;44411;49.994;8.660;2023-08-24T05:08:32;11.37;;;10.27;;
58643;SDS011;44411;49.994;8.660;2023-08-24T05:10:58;15.02;;;10.50;;
58643;SDS011;44411;49.994;8.660;2023-08-24T05:13:23;12.60;;;10.63;;
58643;SDS011;44411;49.994;8.660;2023-08-24T05:15:48;10.23;;;9.17;;
58643;SDS011;44411;49.994;8.660;2023-08-24T05:18:13;10.60;;;9.03;;
58643;SDS011;44411;49.994;8.660;2023-08-24T05:20:38;10.07;;;8.73;;
58643;SDS011;44411;49.994;8.660;2023-08-24T05:23:04;10.77;;;8.23;;
58643;SDS011;44411;49.994;8.660;2023-08-24T05:25:29;11.47;;;9.20;;
58643;SDS011;44411;49.994;8.660;2023-08-24T05:27:54;9.50;;;8.40;;
58643;SDS011;44411;49.994;8.660;2023-08-24T05:30:19;10.77;;;7.23;;
58643;SDS011;44411;49.994;8.660;2023-08-24T05:32:45;12.45;;;6.35;;
58643;SDS011;44411;49.994;8.660;2023-08-24T05:35:10;8.40;;;7.15;;
58643;SDS011;44411;49.994;8.660;2023-08-24T05:37:35;8.52;;;6.65;;
58643;SDS011;44411;49.994;8.660;2023-08-24T05:40:01;11.95;;;7.25;;
58643;SDS011;44411;49.994;8.660;2023-08-24T05:42:26;8.52;;;6.43;;
58643;SDS011;44411;49.994;8.660;2023-08-24T05:44:51;8.57;;;6.72;;
58643;SDS011;44411;49.994;8.660;2023-08-24T05:47:17;8.40;;;6.43;;
58643;SDS011;44411;49.994;8.660;2023-08-24T05:49:42;9.97;;;5.80;;
58643;SDS011;44411;49.994;8.660;2023-08-24T05:52:07;9.05;;;6.28;;
58643;SDS011;44411;49.994;8.660;2023-08-24T05:54:33;9.98;;;5.47;;
58643;SDS011;44411;49.994;8.660;2023-08-24T05:56:58;8.67;;;5.73;;
58643;SDS011;44411;49.994;8.660;2023-08-24T05:59:25;9.55;;;6.32;;
58643;SDS011;44411;49.994;8.660;2023-08-24T06:01:50;8.30;;;6.35;;
58643;SDS011;44411;49.994;8.660;2023-08-24T06:04:16;7.13;;;5.60;;
58643;SDS011;44411;49.994;8.660;2023-08-24T06:06:41;8.13;;;6.40;;
58643;SDS011;44411;49.994;8.660;2023-08-24T06:09:06;11.30;;;6.45;;
58643;SDS011;44411;49.994;8.660;2023-08-24T06:11:32;6.70;;;5.43;;
58643;SDS011;44411;49.994;8.660;2023-08-24T06:13:57;7.63;;;5.38;;
58643;SDS011;44411;49.994;8.660;2023-08-24T06:16:22;7.10;;;5.77;;
58643;SDS011;44411;49.994;8.660;2023-08-24T06:18:48;8.63;;;5.70;;
58643;SDS011;44411;49.994;8.660;2023-08-24T06:21:14;9.70;;;5.43;;
58643;SDS011;44411;49.994;8.660;2023-08-24T06:23:40;7.93;;;5.90;;
58643;SDS011;44411;49.994;8.660;2023-08-24T06:26:05;9.15;;;5.47;;
58643;SDS011;44411;49.994;8.660;2023-08-24T06:28:30;8.70;;;6.10;;
58643;SDS011;44411;49.994;8.660;2023-08-24T06:30:56;9.82;;;5.40;;
58643;SDS011;44411;49.994;8.660;2023-08-24T06:33:21;9.55;;;5.60;;
58643;SDS011;44411;49.994;8.660;2023-08-24T06:35:51;7.25;;;5.43;;
58643;SDS011;44411;49.994;8.660;2023-08-24T06:38:16;8.70;;;6.40;;
58643;SDS011;44411;49.994;8.660;2023-08-24T06:40:42;10.45;;;6.13;;
58643;SDS011;44411;49.994;8.660;2023-08-24T06:43:07;9.60;;;6.43;;
58643;SDS011;44411;49.994;8.660;2023-08-24T06:45:32;7.70;;;5.93;;
58643;SDS011;44411;49.994;8.660;2023-08-24T06:47:57;8.90;;;5.90;;
58643;SDS011;44411;49.994;8.660;2023-08-24T06:50:23;7.37;;;5.17;;
58643;SDS011;44411;49.994;8.660;2023-08-24T06:52:48;8.13;;;5.43;;
58643;SDS011;44411;49.994;8.660;2023-08-24T06:55:13;9.93;;;5.45;;
58643;SDS011;44411;49.994;8.660;2023-08-24T06:57:38;9.57;;;5.17;;
58643;SDS011;44411;49.994;8.660;2023-08-24T07:00:04;8.63;;;5.07;;
58643;SDS011;44411;49.994;8.660;2023-08-24T07:02:34;8.90;;;5.20;;
58643;SDS011;44411;49.994;8.660;2023-08-24T07:04:59;8.18;;;5.07;;
58643;SDS011;44411;49.994;8.660;2023-08-24T07:07:25;7.30;;;5.50;;
58643;SDS011;44411;49.994;8.660;2023-08-24T07:09:51;10.03;;;4.77;;
58643;SDS011;44411;49.994;8.660;2023-08-24T07:12:16;7.50;;;4.90;;
58643;SDS011;44411;49.994;8.660;2023-08-24T07:14:41;10.30;;;5.47;;
58643;SDS011;44411;49.994;8.660;2023-08-24T07:17:06;8.23;;;5.47;;
58643;SDS011;44411;49.994;8.660;2023-08-24T07:19:32;6.73;;;4.90;;
58643;SDS011;44411;49.994;8.660;2023-08-24T07:21:57;6.70;;;5.30;;
58643;SDS011;44411;49.994;8.660;2023-08-24T07:24:22;9.23;;;5.43;;
58643;SDS011;44411;49.994;8.660;2023-08-24T07:26:51;6.60;;;4.95;;
58643;SDS011;44411;49.994;8.660;2023-08-24T07:29:16;10.43;;;5.35;;
58643;SDS011;44411;49.994;8.660;2023-08-24T07:31:41;7.97;;;5.50;;
58643;SDS011;44411;49.994;8.660;2023-08-24T07:34:06;7.87;;;5.00;;
58643;SDS011;44411;49.994;8.660;2023-08-24T07:36:32;6.30;;;4.67;;
58643;SDS011;44411;49.994;8.660;2023-08-24T07:38:57;9.73;;;5.22;;
58643;SDS011;44411;49.994;8.660;2023-08-24T07:41:22;8.70;;;5.13;;
58643;SDS011;44411;49.994;8.660;2023-08-24T07:43:48;9.57;;;5.13;;
58643;SDS011;44411;49.994;8.660;2023-08-24T07:46:13;8.20;;;4.87;;
58643;SDS011;44411;49.994;8.660;2023-08-24T07:48:38;8.68;;;5.40;;
58643;SDS011;44411;49.994;8.660;2023-08-24T07:51:03;6.70;;;4.38;;
58643;SDS011;44411;49.994;8.660;2023-08-24T07:53:29;7.73;;;4.87;;
58643;SDS011;44411;49.994;8.660;2023-08-24T07:55:54;6.68;;;4.50;;
58643;SDS011;44411;49.994;8.660;2023-08-24T07:58:23;5.57;;;4.55;;
58643;SDS011;44411;49.994;8.660;2023-08-24T08:00:51;8.95;;;4.57;;
58643;SDS011;44411;49.994;8.660;2023-08-24T08:03:19;9.38;;;4.90;;
58643;SDS011;44411;49.994;8.660;2023-08-24T08:05:45;8.65;;;4.38;;
58643;SDS011;44411;49.994;8.660;2023-08-24T08:08:11;6.45;;;4.15;;
58643;SDS011;44411;49.994;8.660;2023-08-24T08:10:36;9.03;;;4.67;;
58643;SDS011;44411;49.994;8.660;2023-08-24T08:13:01;8.03;;;5.17;;
58643;SDS011;44411;49.994;8.660;2023-08-24T08:15:26;7.10;;;5.20;;
58643;SDS011;44411;49.994;8.660;2023-08-24T08:17:52;8.27;;;4.80;;
58643;SDS011;44411;49.994;8.660;2023-08-24T08:20:17;7.03;;;4.70;;
58643;SDS011;44411;49.994;8.660;2023-08-24T08:22:42;6.03;;;4.50;;
58643;SDS011;44411;49.994;8.660;2023-08-24T08:25:07;7.00;;;4.90;;
58643;SDS011;44411;49.994;8.660;2023-08-24T08:27:33;9.27;;;4.32;;
58643;SDS011;44411;49.994;8.660;2023-08-24T08:29:58;6.38;;;4.88;;
58643;SDS011;44411;49.994;8.660;2023-08-24T09:50:20;6.57;;;3.47;;
58643;SDS011;44411;49.994;8.660;2023-08-24T09:52:46;8.32;;;3.55;;
58643;SDS011;44411;49.994;8.660;2023-08-24T09:55:13;7.40;;;3.47;;
58643;SDS011;44411;49.994;8.660;2023-08-24T09:57:40;4.75;;;3.30;;
58643;SDS011;44411;49.994;8.660;2023-08-24T10:00:06;4.68;;;3.40;;
58643;SDS011;44411;49.994;8.660;2023-08-24T10:02:36;6.00;;;3.60;;
58643;SDS011;44411;49.994;8.660;2023-08-24T10:05:01;5.20;;;3.42;;
58643;SDS011;44411;49.994;8.660;2023-08-24T10:07:27;7.38;;;3.33;;
58643;SDS011;44411;49.994;8.660;2023-08-24T10:09:56;5.47;;;3.60;;
58643;SDS011;44411;49.994;8.660;2023-08-24T10:12:23;5.93;;;3.50;;
58643;SDS011;44411;49.994;8.660;2023-08-24T10:14:53;5.35;;;3.80;;
58643;SDS011;44411;49.994;8.660;2023-08-24T10:17:22;6.22;;;3.80;;
58643;SDS011;44411;49.994;8.660;2023-08-24T10:19:47;5.78;;;3.72;;
58643;SDS011;44411;49.994;8.660;2023-08-24T10:22:12;6.20;;;3.47;;
58643;SDS011;44411;49.994;8.660;2023-08-24T10:24:38;5.55;;;3.85;;
58643;SDS011;44411;49.994;8.660;2023-08-24T10:27:04;5.55;;;4.43;;
58643;SDS011;44411;49.994;8.660;2023-08-24T10:29:30;6.20;;;4.47;;
58643;SDS011;44411;49.994;8.660;2023-08-24T10:31:55;8.37;;;4.20;;
58643;SDS011;44411;49.994;8.660;2023-08-24T10:34:21;7.43;;;4.25;;
58643;SDS011;44411;49.994;8.660;2023-08-24T10:36:49;8.63;;;4.60;;
58643;SDS011;44411;49.994;8.660;2023-08-24T10:39:15;6.17;;;3.77;;
58643;SDS011;44411;49.994;8.660;2023-08-24T10:41:50;5.93;;;3.80;;
58643;SDS011;44411;49.994;8.660;2023-08-24T10:44:23;6.45;;;4.15;;
58643;SDS011;44411;49.994;8.660;2023-08-24T10:49:33;7.35;;;4.10;;
58643;SDS011;44411;49.994;8.660;2023-08-24T10:51:58;7.00;;;3.95;;
58643;SDS011;44411;49.994;8.660;2023-08-24T10:54:45;6.65;;;3.85;;
58643;SDS011;44411;49.994;8.660;2023-08-24T10:59:35;5.00;;;3.58;;
58643;SDS011;44411;49.994;8.660;2023-08-24T11:02:00;5.23;;;3.47;;
58643;SDS011;44411;49.994;8.660;2023-08-24T11:04:26;6.07;;;3.35;;
58643;SDS011;44411;49.994;8.660;2023-08-24T11:06:56;7.43;;;4.03;;
58643;SDS011;44411;49.994;8.660;2023-08-24T11:09:22;6.68;;;3.70;;
58643;SDS011;44411;49.994;8.660;2023-08-24T11:12:01;6.72;;;3.50;;
58643;SDS011;44411;49.994;8.660;2023-08-24T11:14:26;7.60;;;3.17;;
58643;SDS011;44411;49.994;8.660;2023-08-24T11:16:54;6.00;;;3.40;;
58643;SDS011;44411;49.994;8.660;2023-08-24T11:19:21;5.32;;;3.70;;
58643;SDS011;44411;49.994;8.660;2023-08-24T11:21:47;5.30;;;3.40;;
58643;SDS011;44411;49.994;8.660;2023-08-24T11:24:12;6.00;;;3.70;;
58643;SDS011;44411;49.994;8.660;2023-08-24T11:26:42;5.20;;;3.65;;
58643;SDS011;44411;49.994;8.660;2023-08-24T11:29:07;7.28;;;3.70;;
58643;SDS011;44411;49.994;8.660;2023-08-24T11:31:33;7.40;;;3.50;;
58643;SDS011;44411;49.994;8.660;2023-08-24T11:33:59;5.10;;;3.40;;
58643;SDS011;44411;49.994;8.660;2023-08-24T11:36:24;7.47;;;3.90;;
58643;SDS011;44411;49.994;8.660;2023-08-24T11:38:51;4.53;;;3.20;;
58643;SDS011;44411;49.994;8.660;2023-08-24T11:41:16;6.47;;;3.42;;
58643;SDS011;44411;49.994;8.660;2023-08-24T11:43:43;5.32;;;3.15;;
58643;SDS011;44411;49.994;8.660;2023-08-24T11:46:08;7.22;;;3.60;;
58643;SDS011;44411;49.994;8.660;2023-08-24T11:48:33;6.67;;;3.80;;
58643;SDS011;44411;49.994;8.660;2023-08-24T11:51:01;6.10;;;3.53;;
58643;SDS011;44411;49.994;8.660;2023-08-24T11:53:27;7.10;;;3.30;;
58643;SDS011;44411;49.994;8.660;2023-08-24T11:55:54;5.95;;;3.95;;
58643;SDS011;44411;49.994;8.660;2023-08-24T11:58:19;6.45;;;3.70;;
58643;SDS011;44411;49.994;8.660;2023-08-24T12:00:45;5.40;;;3.00;;
58643;SDS011;44411;49.994;8.660;2023-08-24T12:03:11;5.10;;;3.22;;
58643;SDS011;44411;49.994;8.660;2023-08-24T12:05:36;6.95;;;3.40;;
58643;SDS011;44411;49.994;8.660;2023-08-24T12:08:01;6.23;;;3.77;;
58643;SDS011;44411;49.994;8.660;2023-08-24T12:10:26;5.23;;;3.67;;
58643;SDS011;44411;49.994;8.660;2023-08-24T12:13:00;7.63;;;3.70;;
58643;SDS011;44411;49.994;8.660;2023-08-24T12:15:27;5.57;;;3.72;;
58643;SDS011;44411;49.994;8.660;2023-08-24T12:17:53;5.93;;;3.65;;
58643;SDS011;44411;49.994;8.660;2023-08-24T12:20:19;6.17;;;3.37;;
58643;SDS011;44411;49.994;8.660;2023-08-24T12:22:49;5.65;;;3.40;;
58643;SDS011;44411;49.994;8.660;2023-08-24T12:25:14;4.97;;;3.53;;
58643;SDS011;44411;49.994;8.660;2023-08-24T12:27:42;6.65;;;3.47;;
58643;SDS011;44411;49.994;8.660;2023-08-24T12:30:07;4.55;;;3.40;;
58643;SDS011;44411;49.994;8.660;2023-08-24T12:32:42;5.55;;;3.47;;
58643;SDS011;44411;49.994;8.660;2023-08-24T12:35:07;6.88;;;3.95;;
58643;SDS011;44411;49.994;8.660;2023-08-24T12:37:33;5.85;;;3.40;;
58643;SDS011;44411;49.994;8.660;2023-08-24T12:40:01;7.15;;;4.10;;
58643;SDS011;44411;49.994;8.660;2023-08-24T12:42:26;6.60;;;3.70;;
58643;SDS011;44411;49.994;8.660;2023-08-24T12:44:51;9.77;;;4.23;;
58643;SDS011;44411;49.994;8.660;2023-08-24T12:47:16;6.53;;;3.90;;
58643;SDS011;44411;49.994;8.660;2023-08-24T12:49:41;5.17;;;3.87;;
58643;SDS011;44411;49.994;8.660;2023-08-24T12:52:06;7.27;;;3.60;;
58643;SDS011;44411;49.994;8.660;2023-08-24T12:54:32;6.70;;;3.80;;
58643;SDS011;44411;49.994;8.660;2023-08-24T12:56:57;5.60;;;3.47;;
58643;SDS011;44411;49.994;8.660;2023-08-24T12:59:23;7.17;;;3.50;;
58643;SDS011;44411;49.994;8.660;2023-08-24T13:01:48;5.00;;;3.50;;
58643;SDS011;44411;49.994;8.660;2023-08-24T13:04:13;5.87;;;3.50;;
58643;SDS011;44411;49.994;8.660;2023-08-24T13:06:38;6.37;;;3.57;;
58643;SDS011;44411;49.994;8.660;2023-08-24T13:09:03;7.70;;;4.10;;
58643;SDS011;44411;49.994;8.660;2023-08-24T13:11:29;6.23;;;3.57;;
58643;SDS011;44411;49.994;8.660;2023-08-24T13:13:54;5.10;;;3.43;;
58643;SDS011;44411;49.994;8.660;2023-08-24T13:16:19;6.93;;;3.80;;
58643;SDS011;44411;49.994;8.660;2023-08-24T13:18:44;6.20;;;3.37;;
58643;SDS011;44411;49.994;8.660;2023-08-24T13:21:09;5.27;;;3.67;;
58643;SDS011;44411;49.994;8.660;2023-08-24T13:23:35;5.57;;;4.00;;
58643;SDS011;44411;49.994;8.660;2023-08-24T13:26:00;5.07;;;3.70;;
58643;SDS011;44411;49.994;8.660;2023-08-24T13:28:26;6.88;;;3.70;;
58643;SDS011;44411;49.994;8.660;2023-08-24T13:30:51;6.05;;;3.92;;
58643;SDS011;44411;49.994;8.660;2023-08-24T13:33:16;5.93;;;4.27;;
58643;SDS011;44411;49.994;8.660;2023-08-24T13:35:43;5.63;;;3.80;;
58643;SDS011;44411;49.994;8.660;2023-08-24T13:38:08;8.13;;;4.37;;
58643;SDS011;44411;49.994;8.660;2023-08-24T13:40:33;7.67;;;4.30;;
58643;SDS011;44411;49.994;8.660;2023-08-24T13:42:59;7.43;;;4.17;;
58643;SDS011;44411;49.994;8.660;2023-08-24T13:45:24;6.77;;;3.80;;
58643;SDS011;44411;49.994;8.660;2023-08-24T13:47:49;7.68;;;4.18;;
58643;SDS011;44411;49.994;8.660;2023-08-24T13:50:15;8.73;;;3.97;;
58643;SDS011;44411;49.994;8.660;2023-08-24T13:52:40;8.43;;;4.00;;
58643;SDS011;44411;49.994;8.660;2023-08-24T13:55:05;7.17;;;3.97;;
58643;SDS011;44411;49.994;8.660;2023-08-24T13:57:30;8.85;;;4.40;;
58643;SDS011;44411;49.994;8.660;2023-08-24T13:59:56;11.70;;;4.30;;
58643;SDS011;44411;49.994;8.660;2023-08-24T14:02:21;7.15;;;4.00;;
58643;SDS011;44411;49.994;8.660;2023-08-24T14:04:46;6.70;;;3.97;;
58643;SDS011;44411;49.994;8.660;2023-08-24T14:07:11;9.43;;;4.43;;
58643;SDS011;44411;49.994;8.660;2023-08-24T14:09:37;6.63;;;3.93;;
58643;SDS011;44411;49.994;8.660;2023-08-24T14:12:02;8.60;;;4.33;;
58643;SDS011;44411;49.994;8.660;2023-08-24T14:14:27;7.37;;;3.97;;
58643;SDS011;44411;49.994;8.660;2023-08-24T14:16:56;7.07;;;4.37;;
58643;SDS011;44411;49.994;8.660;2023-08-24T14:19:21;6.90;;;4.20;;
58643;SDS011;44411;49.994;8.660;2023-08-24T14:21:46;7.18;;;3.78;;
58643;SDS011;44411;49.994;8.660;2023-08-24T14:24:12;5.20;;;3.93;;
58643;SDS011;44411;49.994;8.660;2023-08-24T14:26:37;7.93;;;4.57;;
58643;SDS011;44411;49.994;8.660;2023-08-24T14:29:04;7.53;;;4.38;;
58643;SDS011;44411;49.994;8.660;2023-08-24T14:31:29;7.60;;;4.20;;
58643;SDS011;44411;49.994;8.660;2023-08-24T14:33:55;8.85;;;4.10;;
58643;SDS011;44411;49.994;8.660;2023-08-24T14:36:20;8.60;;;4.00;;
58643;SDS011;44411;49.994;8.660;2023-08-24T14:38:46;12.03;;;4.33;;
58643;SDS011;44411;49.994;8.660;2023-08-24T14:41:11;6.63;;;3.92;;
58643;SDS011;44411;49.994;8.660;2023-08-24T14:43:37;7.45;;;4.22;;
58643;SDS011;44411;49.994;8.660;2023-08-24T14:46:02;6.28;;;4.15;;
58643;SDS011;44411;49.994;8.660;2023-08-24T14:48:28;7.57;;;4.55;;
58643;SDS011;44411;49.994;8.660;2023-08-24T14:50:54;6.72;;;4.65;;
58643;SDS011;44411;49.994;8.660;2023-08-24T14:53:19;6.07;;;3.93;;
58643;SDS011;44411;49.994;8.660;2023-08-24T14:55:44;6.33;;;4.27;;
58643;SDS011;44411;49.994;8.660;2023-08-24T14:58:09;9.23;;;4.13;;
58643;SDS011;44411;49.994;8.660;2023-08-24T15:00:34;9.30;;;4.67;;
58643;SDS011;44411;49.994;8.660;2023-08-24T15:03:00;6.77;;;4.27;;
58643;SDS011;44411;49.994;8.660;2023-08-24T15:05:25;8.80;;;4.50;;
58643;SDS011;44411;49.994;8.660;2023-08-24T15:07:51;10.25;;;5.15;;
58643;SDS011;44411;49.994;8.660;2023-08-24T15:10:16;7.38;;;5.00;;
58643;SDS011;44411;49.994;8.660;2023-08-24T15:12:42;7.10;;;4.53;;
58643;SDS011;44411;49.994;8.660;2023-08-24T15:15:08;9.02;;;5.03;;
58643;SDS011;44411;49.994;8.660;2023-08-24T15:17:35;7.32;;;4.97;;
58643;SDS011;44411;49.994;8.660;2023-08-24T15:20:00;5.88;;;5.18;;
58643;SDS011;44411;49.994;8.660;2023-08-24T15:22:26;10.27;;;5.30;;
58643;SDS011;44411;49.994;8.660;2023-08-24T15:24:54;9.15;;;5.13;;
58643;SDS011;44411;49.994;8.660;2023-08-24T15:27:19;7.65;;;4.93;;
58643;SDS011;44411;49.994;8.660;2023-08-24T15:29:44;7.93;;;5.37;;
58643;SDS011;44411;49.994;8.660;2023-08-24T15:32:10;9.53;;;5.17;;
58643;SDS011;44411;49.994;8.660;2023-08-24T15:34:36;8.68;;;5.57;;
58643;SDS011;44411;49.994;8.660;2023-08-24T15:37:01;9.60;;;5.20;;
58643;SDS011;44411;49.994;8.660;2023-08-24T15:39:26;10.50;;;4.83;;
58643;SDS011;44411;49.994;8.660;2023-08-24T15:41:52;7.15;;;5.20;;
58643;SDS011;44411;49.994;8.660;2023-08-24T15:44:17;6.73;;;5.60;;
58643;SDS011;44411;49.994;8.660;2023-08-24T15:46:42;8.47;;;5.37;;
58643;SDS011;44411;49.994;8.660;2023-08-24T15:49:07;9.30;;;5.23;;
58643;SDS011;44411;49.994;8.660;2023-08-24T15:51:32;6.83;;;4.93;;
58643;SDS011;44411;49.994;8.660;2023-08-24T15:53:57;6.57;;;5.50;;
58643;SDS011;44411;49.994;8.660;2023-08-24T15:56:23;7.87;;;5.37;;
58643;SDS011;44411;49.994;8.660;2023-08-24T15:58:48;9.37;;;5.33;;